sensor_id;sensor_type;location;lat;lon;timestamp;P1;durP1;ratioP1;P2;durP2;ratioP2
33654;SDS011;19997;51.274;22.506;2023-04-28T00:00:01;29.55;;;11.45;;
33654;SDS011;19997;51.274;22.506;2023-04-28T00:02:30;22.13;;;11.18;;
33654;SDS011;19997;51.274;22.506;2023-04-28T00:04:58;25.80;;;11.38;;
33654;SDS011;19997;51.274;22.506;2023-04-28T00:07:26;22.35;;;10.40;;
33654;SDS011;19997;51.274;22.506;2023-04-28T00:09:53;25.90;;;10.63;;
33654;SDS011;19997;51.274;22.506;2023-04-28T00:12:21;24.88;;;9.85;;
33654;SDS011;19997;51.274;22.506;2023-04-28T00:14:48;25.55;;;11.00;;
33654;SDS011;19997;51.274;22.506;2023-04-28T00:17:15;22.38;;;10.82;;
33654;SDS011;19997;51.274;22.506;2023-04-28T00:19:42;23.92;;;10.57;;
33654;SDS011;19997;51.274;22.506;2023-04-28T00:22:09;20.05;;;9.80;;
33654;SDS011;19997;51.274;22.506;2023-04-28T00:24:37;23.02;;;9.65;;
33654;SDS011;19997;51.274;22.506;2023-04-28T00:27:06;32.10;;;11.07;;
33654;SDS011;19997;51.274;22.506;2023-04-28T00:29:33;18.25;;;9.50;;
33654;SDS011;19997;51.274;22.506;2023-04-28T00:32:01;25.08;;;10.00;;
33654;SDS011;19997;51.274;22.506;2023-04-28T00:34:29;26.75;;;10.02;;
33654;SDS011;19997;51.274;22.506;2023-04-28T00:36:58;23.38;;;10.27;;
33654;SDS011;19997;51.274;22.506;2023-04-28T00:39:25;18.92;;;9.98;;
33654;SDS011;19997;51.274;22.506;2023-04-28T00:41:53;23.95;;;10.50;;
33654;SDS011;19997;51.274;22.506;2023-04-28T00:44:20;25.92;;;10.13;;
33654;SDS011;19997;51.274;22.506;2023-04-28T00:46:47;24.85;;;10.60;;
33654;SDS011;19997;51.274;22.506;2023-04-28T00:49:15;24.23;;;9.77;;
33654;SDS011;19997;51.274;22.506;2023-04-28T00:51:42;16.25;;;9.30;;
33654;SDS011;19997;51.274;22.506;2023-04-28T00:54:11;20.70;;;9.93;;
33654;SDS011;19997;51.274;22.506;2023-04-28T00:56:39;20.77;;;11.32;;
33654;SDS011;19997;51.274;22.506;2023-04-28T00:59:08;24.35;;;9.95;;
33654;SDS011;19997;51.274;22.506;2023-04-28T01:01:35;24.92;;;11.98;;
33654;SDS011;19997;51.274;22.506;2023-04-28T01:04:02;23.92;;;11.45;;
33654;SDS011;19997;51.274;22.506;2023-04-28T01:06:30;20.02;;;11.32;;
33654;SDS011;19997;51.274;22.506;2023-04-28T01:09:00;25.85;;;11.13;;
33654;SDS011;19997;51.274;22.506;2023-04-28T01:11:27;18.05;;;9.55;;
33654;SDS011;19997;51.274;22.506;2023-04-28T01:14:07;27.73;;;11.63;;
33654;SDS011;19997;51.274;22.506;2023-04-28T01:16:37;24.98;;;10.00;;
33654;SDS011;19997;51.274;22.506;2023-04-28T01:19:05;23.50;;;10.25;;
33654;SDS011;19997;51.274;22.506;2023-04-28T01:24:23;27.27;;;10.00;;
33654;SDS011;19997;51.274;22.506;2023-04-28T01:26:50;22.90;;;12.32;;
33654;SDS011;19997;51.274;22.506;2023-04-28T01:29:17;23.88;;;10.00;;
33654;SDS011;19997;51.274;22.506;2023-04-28T01:31:44;23.88;;;9.85;;
33654;SDS011;19997;51.274;22.506;2023-04-28T01:34:11;21.80;;;10.02;;
33654;SDS011;19997;51.274;22.506;2023-04-28T01:36:38;23.00;;;10.20;;
33654;SDS011;19997;51.274;22.506;2023-04-28T01:39:05;22.65;;;10.60;;
33654;SDS011;19997;51.274;22.506;2023-04-28T01:41:34;20.95;;;10.48;;
33654;SDS011;19997;51.274;22.506;2023-04-28T01:44:02;28.10;;;11.98;;
33654;SDS011;19997;51.274;22.506;2023-04-28T01:46:31;22.42;;;11.18;;
33654;SDS011;19997;51.274;22.506;2023-04-28T01:48:58;23.38;;;11.10;;
33654;SDS011;19997;51.274;22.506;2023-04-28T01:51:26;21.90;;;10.43;;
33654;SDS011;19997;51.274;22.506;2023-04-28T01:53:53;24.65;;;10.43;;
33654;SDS011;19997;51.274;22.506;2023-04-28T01:56:20;19.08;;;10.25;;
33654;SDS011;19997;51.274;22.506;2023-04-28T01:58:50;21.75;;;10.70;;
33654;SDS011;19997;51.274;22.506;2023-04-28T02:01:17;21.27;;;11.75;;
33654;SDS011;19997;51.274;22.506;2023-04-28T02:03:44;26.90;;;11.82;;
33654;SDS011;19997;51.274;22.506;2023-04-28T02:06:13;27.33;;;10.13;;
33654;SDS011;19997;51.274;22.506;2023-04-28T02:08:40;24.58;;;10.52;;
33654;SDS011;19997;51.274;22.506;2023-04-28T02:11:07;22.35;;;9.90;;
33654;SDS011;19997;51.274;22.506;2023-04-28T02:13:34;19.40;;;11.07;;
33654;SDS011;19997;51.274;22.506;2023-04-28T02:16:03;22.50;;;10.10;;
33654;SDS011;19997;51.274;22.506;2023-04-28T02:18:30;23.38;;;10.73;;
33654;SDS011;19997;51.274;22.506;2023-04-28T02:21:06;24.30;;;10.93;;
33654;SDS011;19997;51.274;22.506;2023-04-28T02:23:34;23.83;;;10.98;;
33654;SDS011;19997;51.274;22.506;2023-04-28T02:26:03;28.02;;;11.55;;
33654;SDS011;19997;51.274;22.506;2023-04-28T02:28:31;25.23;;;10.98;;
33654;SDS011;19997;51.274;22.506;2023-04-28T02:31:06;24.30;;;11.40;;
33654;SDS011;19997;51.274;22.506;2023-04-28T02:33:34;20.83;;;11.02;;
33654;SDS011;19997;51.274;22.506;2023-04-28T02:36:02;22.45;;;10.70;;
33654;SDS011;19997;51.274;22.506;2023-04-28T02:38:30;21.40;;;9.27;;
33654;SDS011;19997;51.274;22.506;2023-04-28T02:40:57;21.55;;;10.70;;
33654;SDS011;19997;51.274;22.506;2023-04-28T02:43:25;22.35;;;11.73;;
33654;SDS011;19997;51.274;22.506;2023-04-28T02:45:52;36.13;;;17.20;;
33654;SDS011;19997;51.274;22.506;2023-04-28T02:48:22;30.08;;;13.65;;
33654;SDS011;19997;51.274;22.506;2023-04-28T02:50:49;24.13;;;10.52;;
33654;SDS011;19997;51.274;22.506;2023-04-28T02:53:17;20.23;;;9.82;;
33654;SDS011;19997;51.274;22.506;2023-04-28T02:55:45;24.20;;;10.88;;
33654;SDS011;19997;51.274;22.506;2023-04-28T02:58:12;19.77;;;10.50;;
33654;SDS011;19997;51.274;22.506;2023-04-28T03:00:39;25.50;;;11.48;;
33654;SDS011;19997;51.274;22.506;2023-04-28T03:03:06;24.70;;;11.65;;
33654;SDS011;19997;51.274;22.506;2023-04-28T03:05:35;22.77;;;11.55;;
33654;SDS011;19997;51.274;22.506;2023-04-28T03:08:02;31.42;;;13.55;;
33654;SDS011;19997;51.274;22.506;2023-04-28T03:10:29;27.30;;;12.77;;
33654;SDS011;19997;51.274;22.506;2023-04-28T03:12:56;23.67;;;11.88;;
33654;SDS011;19997;51.274;22.506;2023-04-28T03:15:24;22.73;;;11.80;;
33654;SDS011;19997;51.274;22.506;2023-04-28T03:17:51;24.13;;;11.18;;
33654;SDS011;19997;51.274;22.506;2023-04-28T03:20:18;24.83;;;10.40;;
33654;SDS011;19997;51.274;22.506;2023-04-28T03:22:46;22.98;;;12.80;;
33654;SDS011;19997;51.274;22.506;2023-04-28T03:25:13;20.48;;;9.88;;
33654;SDS011;19997;51.274;22.506;2023-04-28T03:27:46;21.90;;;11.18;;
33654;SDS011;19997;51.274;22.506;2023-04-28T03:30:13;23.80;;;12.25;;
33654;SDS011;19997;51.274;22.506;2023-04-28T03:32:40;30.58;;;11.88;;
33654;SDS011;19997;51.274;22.506;2023-04-28T03:35:08;25.23;;;12.35;;
33654;SDS011;19997;51.274;22.506;2023-04-28T03:37:36;28.95;;;13.00;;
33654;SDS011;19997;51.274;22.506;2023-04-28T03:40:06;27.13;;;12.27;;
33654;SDS011;19997;51.274;22.506;2023-04-28T03:42:55;27.33;;;11.32;;
33654;SDS011;19997;51.274;22.506;2023-04-28T03:45:27;22.00;;;11.43;;
33654;SDS011;19997;51.274;22.506;2023-04-28T03:47:54;28.48;;;12.80;;
33654;SDS011;19997;51.274;22.506;2023-04-28T03:50:21;22.38;;;12.07;;
33654;SDS011;19997;51.274;22.506;2023-04-28T03:52:48;32.20;;;13.93;;
33654;SDS011;19997;51.274;22.506;2023-04-28T03:55:17;29.50;;;12.80;;
33654;SDS011;19997;51.274;22.506;2023-04-28T03:57:44;27.02;;;11.82;;
33654;SDS011;19997;51.274;22.506;2023-04-28T04:00:12;20.70;;;10.82;;
33654;SDS011;19997;51.274;22.506;2023-04-28T04:02:45;25.13;;;12.23;;
33654;SDS011;19997;51.274;22.506;2023-04-28T04:05:14;23.45;;;12.73;;
33654;SDS011;19997;51.274;22.506;2023-04-28T04:07:41;33.67;;;13.82;;
33654;SDS011;19997;51.274;22.506;2023-04-28T04:10:09;29.20;;;12.55;;
33654;SDS011;19997;51.274;22.506;2023-04-28T04:12:40;27.77;;;14.07;;
33654;SDS011;19997;51.274;22.506;2023-04-28T04:15:08;20.85;;;11.68;;
33654;SDS011;19997;51.274;22.506;2023-04-28T04:17:36;26.70;;;13.23;;
33654;SDS011;19997;51.274;22.506;2023-04-28T04:20:04;24.63;;;12.25;;
33654;SDS011;19997;51.274;22.506;2023-04-28T04:22:32;24.05;;;12.30;;
33654;SDS011;19997;51.274;22.506;2023-04-28T04:24:59;25.67;;;11.90;;
33654;SDS011;19997;51.274;22.506;2023-04-28T04:27:26;27.83;;;11.77;;
33654;SDS011;19997;51.274;22.506;2023-04-28T04:29:55;27.50;;;12.43;;
33654;SDS011;19997;51.274;22.506;2023-04-28T04:32:22;27.95;;;12.73;;
33654;SDS011;19997;51.274;22.506;2023-04-28T04:34:49;31.35;;;13.35;;
33654;SDS011;19997;51.274;22.506;2023-04-28T04:37:16;39.55;;;22.35;;
33654;SDS011;19997;51.274;22.506;2023-04-28T04:39:50;22.52;;;11.18;;
33654;SDS011;19997;51.274;22.506;2023-04-28T04:42:18;24.52;;;11.60;;
33654;SDS011;19997;51.274;22.506;2023-04-28T04:44:50;26.75;;;11.90;;
33654;SDS011;19997;51.274;22.506;2023-04-28T04:47:30;25.45;;;11.43;;
33654;SDS011;19997;51.274;22.506;2023-04-28T04:49:57;24.98;;;11.32;;
33654;SDS011;19997;51.274;22.506;2023-04-28T04:52:24;32.80;;;13.00;;
33654;SDS011;19997;51.274;22.506;2023-04-28T04:54:52;31.02;;;13.50;;
33654;SDS011;19997;51.274;22.506;2023-04-28T04:57:22;31.60;;;12.68;;
33654;SDS011;19997;51.274;22.506;2023-04-28T05:00:08;29.65;;;11.25;;
33654;SDS011;19997;51.274;22.506;2023-04-28T05:02:38;28.23;;;12.00;;
33654;SDS011;19997;51.274;22.506;2023-04-28T05:05:05;24.70;;;12.70;;
33654;SDS011;19997;51.274;22.506;2023-04-28T05:07:33;26.50;;;12.48;;
33654;SDS011;19997;51.274;22.506;2023-04-28T05:10:01;23.60;;;11.13;;
33654;SDS011;19997;51.274;22.506;2023-04-28T05:12:29;25.73;;;11.32;;
33654;SDS011;19997;51.274;22.506;2023-04-28T05:14:56;31.05;;;12.05;;
33654;SDS011;19997;51.274;22.506;2023-04-28T05:17:26;25.63;;;11.93;;
33654;SDS011;19997;51.274;22.506;2023-04-28T05:19:55;22.63;;;11.73;;
33654;SDS011;19997;51.274;22.506;2023-04-28T05:22:23;24.42;;;11.82;;
33654;SDS011;19997;51.274;22.506;2023-04-28T05:24:50;17.98;;;9.20;;
33654;SDS011;19997;51.274;22.506;2023-04-28T05:27:18;25.70;;;10.27;;
33654;SDS011;19997;51.274;22.506;2023-04-28T05:29:45;26.35;;;10.20;;
33654;SDS011;19997;51.274;22.506;2023-04-28T05:32:12;17.70;;;9.07;;
33654;SDS011;19997;51.274;22.506;2023-04-28T05:34:40;26.75;;;11.85;;
33654;SDS011;19997;51.274;22.506;2023-04-28T05:37:08;21.45;;;10.48;;
33654;SDS011;19997;51.274;22.506;2023-04-28T05:39:37;22.17;;;9.98;;
33654;SDS011;19997;51.274;22.506;2023-04-28T05:42:05;21.90;;;9.80;;
33654;SDS011;19997;51.274;22.506;2023-04-28T05:44:33;22.15;;;8.98;;
33654;SDS011;19997;51.274;22.506;2023-04-28T05:47:00;19.60;;;8.73;;
33654;SDS011;19997;51.274;22.506;2023-04-28T05:49:27;28.42;;;8.68;;
33654;SDS011;19997;51.274;22.506;2023-04-28T05:51:54;21.63;;;9.38;;
33654;SDS011;19997;51.274;22.506;2023-04-28T05:54:23;19.25;;;8.45;;
33654;SDS011;19997;51.274;22.506;2023-04-28T05:56:52;19.85;;;10.30;;
33654;SDS011;19997;51.274;22.506;2023-04-28T05:59:19;18.67;;;7.40;;
33654;SDS011;19997;51.274;22.506;2023-04-28T06:01:46;15.25;;;6.75;;
33654;SDS011;19997;51.274;22.506;2023-04-28T06:04:14;19.85;;;7.85;;
33654;SDS011;19997;51.274;22.506;2023-04-28T06:06:42;12.60;;;6.57;;
33654;SDS011;19997;51.274;22.506;2023-04-28T06:09:09;15.57;;;6.15;;
33654;SDS011;19997;51.274;22.506;2023-04-28T06:11:38;13.32;;;6.82;;
33654;SDS011;19997;51.274;22.506;2023-04-28T06:14:05;14.35;;;6.15;;
33654;SDS011;19997;51.274;22.506;2023-04-28T06:16:33;15.55;;;6.72;;
33654;SDS011;19997;51.274;22.506;2023-04-28T06:19:00;16.75;;;8.05;;
33654;SDS011;19997;51.274;22.506;2023-04-28T06:21:28;10.73;;;5.50;;
33654;SDS011;19997;51.274;22.506;2023-04-28T06:23:56;10.43;;;5.85;;
33654;SDS011;19997;51.274;22.506;2023-04-28T06:26:23;14.43;;;5.60;;
33654;SDS011;19997;51.274;22.506;2023-04-28T06:28:52;12.50;;;5.82;;
33654;SDS011;19997;51.274;22.506;2023-04-28T06:31:19;13.63;;;6.70;;
33654;SDS011;19997;51.274;22.506;2023-04-28T06:33:46;13.93;;;5.57;;
33654;SDS011;19997;51.274;22.506;2023-04-28T06:36:13;10.90;;;5.75;;
33654;SDS011;19997;51.274;22.506;2023-04-28T06:38:42;14.20;;;6.18;;
33654;SDS011;19997;51.274;22.506;2023-04-28T06:41:09;12.38;;;5.63;;
33654;SDS011;19997;51.274;22.506;2023-04-28T06:43:37;13.68;;;4.13;;
33654;SDS011;19997;51.274;22.506;2023-04-28T06:46:14;11.65;;;4.10;;
33654;SDS011;19997;51.274;22.506;2023-04-28T06:48:41;8.43;;;2.95;;
33654;SDS011;19997;51.274;22.506;2023-04-28T06:51:08;9.13;;;3.08;;
33654;SDS011;19997;51.274;22.506;2023-04-28T06:53:36;9.05;;;2.80;;
33654;SDS011;19997;51.274;22.506;2023-04-28T06:56:06;10.68;;;3.17;;
33654;SDS011;19997;51.274;22.506;2023-04-28T06:58:33;8.10;;;3.08;;
33654;SDS011;19997;51.274;22.506;2023-04-28T07:01:01;6.35;;;3.15;;
33654;SDS011;19997;51.274;22.506;2023-04-28T07:03:31;9.20;;;3.90;;
33654;SDS011;19997;51.274;22.506;2023-04-28T07:05:58;7.43;;;4.18;;
33654;SDS011;19997;51.274;22.506;2023-04-28T07:08:25;9.13;;;3.30;;
33654;SDS011;19997;51.274;22.506;2023-04-28T07:10:54;9.68;;;3.90;;
33654;SDS011;19997;51.274;22.506;2023-04-28T07:13:21;14.07;;;3.97;;
33654;SDS011;19997;51.274;22.506;2023-04-28T07:15:49;7.40;;;2.83;;
33654;SDS011;19997;51.274;22.506;2023-04-28T07:18:16;6.88;;;2.58;;
33654;SDS011;19997;51.274;22.506;2023-04-28T07:20:45;10.30;;;4.03;;
33654;SDS011;19997;51.274;22.506;2023-04-28T07:23:12;9.27;;;3.05;;
33654;SDS011;19997;51.274;22.506;2023-04-28T07:25:39;6.03;;;3.60;;
33654;SDS011;19997;51.274;22.506;2023-04-28T07:28:08;5.45;;;2.47;;
33654;SDS011;19997;51.274;22.506;2023-04-28T07:30:35;5.72;;;2.75;;
33654;SDS011;19997;51.274;22.506;2023-04-28T07:33:02;3.55;;;2.33;;
33654;SDS011;19997;51.274;22.506;2023-04-28T07:35:30;5.43;;;1.70;;
33654;SDS011;19997;51.274;22.506;2023-04-28T07:37:58;7.05;;;2.10;;
33654;SDS011;19997;51.274;22.506;2023-04-28T07:40:25;4.10;;;2.28;;
33654;SDS011;19997;51.274;22.506;2023-04-28T07:42:53;6.00;;;2.78;;
33654;SDS011;19997;51.274;22.506;2023-04-28T07:45:20;6.57;;;2.42;;
33654;SDS011;19997;51.274;22.506;2023-04-28T07:47:47;7.65;;;4.60;;
33654;SDS011;19997;51.274;22.506;2023-04-28T07:50:14;6.20;;;2.63;;
33654;SDS011;19997;51.274;22.506;2023-04-28T07:52:42;4.25;;;2.17;;
33654;SDS011;19997;51.274;22.506;2023-04-28T07:55:10;6.38;;;2.28;;
33654;SDS011;19997;51.274;22.506;2023-04-28T07:57:37;3.55;;;1.90;;
33654;SDS011;19997;51.274;22.506;2023-04-28T08:00:06;4.65;;;1.48;;
33654;SDS011;19997;51.274;22.506;2023-04-28T08:02:38;1.98;;;1.55;;
33654;SDS011;19997;51.274;22.506;2023-04-28T08:05:06;6.00;;;1.65;;
33654;SDS011;19997;51.274;22.506;2023-04-28T08:07:33;5.72;;;2.38;;
33654;SDS011;19997;51.274;22.506;2023-04-28T08:10:01;5.43;;;1.98;;
33654;SDS011;19997;51.274;22.506;2023-04-28T08:12:29;4.53;;;2.03;;
33654;SDS011;19997;51.274;22.506;2023-04-28T08:14:56;8.57;;;2.22;;
33654;SDS011;19997;51.274;22.506;2023-04-28T08:17:23;6.18;;;2.72;;
33654;SDS011;19997;51.274;22.506;2023-04-28T08:19:51;7.68;;;1.77;;
33654;SDS011;19997;51.274;22.506;2023-04-28T08:22:18;5.75;;;1.85;;
33654;SDS011;19997;51.274;22.506;2023-04-28T08:24:45;5.35;;;3.20;;
33654;SDS011;19997;51.274;22.506;2023-04-28T08:27:12;6.60;;;2.90;;
33654;SDS011;19997;51.274;22.506;2023-04-28T08:29:41;3.97;;;1.83;;
33654;SDS011;19997;51.274;22.506;2023-04-28T08:32:08;4.13;;;1.50;;
33654;SDS011;19997;51.274;22.506;2023-04-28T08:34:35;4.63;;;1.75;;
33654;SDS011;19997;51.274;22.506;2023-04-28T08:37:02;2.35;;;1.60;;
33654;SDS011;19997;51.274;22.506;2023-04-28T08:39:31;7.63;;;2.47;;
33654;SDS011;19997;51.274;22.506;2023-04-28T08:41:58;2.80;;;1.70;;
33654;SDS011;19997;51.274;22.506;2023-04-28T08:44:30;2.15;;;1.63;;
33654;SDS011;19997;51.274;22.506;2023-04-28T08:47:04;5.25;;;1.40;;
33654;SDS011;19997;51.274;22.506;2023-04-28T08:49:37;4.07;;;1.85;;
33654;SDS011;19997;51.274;22.506;2023-04-28T08:52:08;3.88;;;1.90;;
33654;SDS011;19997;51.274;22.506;2023-04-28T08:54:37;3.88;;;1.73;;
33654;SDS011;19997;51.274;22.506;2023-04-28T08:57:06;6.22;;;1.85;;
33654;SDS011;19997;51.274;22.506;2023-04-28T08:59:37;3.10;;;2.03;;
33654;SDS011;19997;51.274;22.506;2023-04-28T09:02:06;6.85;;;1.90;;
33654;SDS011;19997;51.274;22.506;2023-04-28T09:04:34;6.65;;;3.40;;
33654;SDS011;19997;51.274;22.506;2023-04-28T09:07:01;7.05;;;1.90;;
33654;SDS011;19997;51.274;22.506;2023-04-28T09:09:29;4.63;;;2.15;;
33654;SDS011;19997;51.274;22.506;2023-04-28T09:11:56;5.97;;;2.50;;
33654;SDS011;19997;51.274;22.506;2023-04-28T09:14:25;3.95;;;1.90;;
33654;SDS011;19997;51.274;22.506;2023-04-28T09:16:52;4.88;;;2.17;;
33654;SDS011;19997;51.274;22.506;2023-04-28T09:19:21;4.35;;;2.40;;
33654;SDS011;19997;51.274;22.506;2023-04-28T09:21:49;5.10;;;1.98;;
33654;SDS011;19997;51.274;22.506;2023-04-28T09:24:27;5.45;;;2.78;;
33654;SDS011;19997;51.274;22.506;2023-04-28T09:26:55;12.20;;;2.45;;
33654;SDS011;19997;51.274;22.506;2023-04-28T09:29:23;5.28;;;2.25;;
33654;SDS011;19997;51.274;22.506;2023-04-28T09:31:50;4.90;;;2.50;;
33654;SDS011;19997;51.274;22.506;2023-04-28T09:34:18;6.30;;;2.30;;
33654;SDS011;19997;51.274;22.506;2023-04-28T09:36:47;5.47;;;2.33;;
33654;SDS011;19997;51.274;22.506;2023-04-28T09:39:14;8.35;;;1.90;;
33654;SDS011;19997;51.274;22.506;2023-04-28T09:41:55;5.65;;;2.97;;
33654;SDS011;19997;51.274;22.506;2023-04-28T09:44:23;9.20;;;2.85;;
33654;SDS011;19997;51.274;22.506;2023-04-28T09:46:50;6.93;;;2.58;;
33654;SDS011;19997;51.274;22.506;2023-04-28T09:49:17;5.10;;;2.60;;
33654;SDS011;19997;51.274;22.506;2023-04-28T09:51:44;3.33;;;2.13;;
33654;SDS011;19997;51.274;22.506;2023-04-28T09:54:14;7.32;;;2.80;;
33654;SDS011;19997;51.274;22.506;2023-04-28T09:56:42;6.22;;;2.70;;
33654;SDS011;19997;51.274;22.506;2023-04-28T10:01:40;4.22;;;2.28;;
33654;SDS011;19997;51.274;22.506;2023-04-28T10:04:08;5.97;;;3.00;;
33654;SDS011;19997;51.274;22.506;2023-04-28T10:06:37;9.48;;;2.20;;
33654;SDS011;19997;51.274;22.506;2023-04-28T10:09:06;5.57;;;2.17;;
33654;SDS011;19997;51.274;22.506;2023-04-28T10:11:34;5.93;;;2.97;;
33654;SDS011;19997;51.274;22.506;2023-04-28T10:14:02;5.30;;;2.05;;
33654;SDS011;19997;51.274;22.506;2023-04-28T10:16:30;4.97;;;2.90;;
33654;SDS011;19997;51.274;22.506;2023-04-28T10:18:57;9.95;;;2.65;;
33654;SDS011;19997;51.274;22.506;2023-04-28T10:21:24;3.65;;;2.40;;
33654;SDS011;19997;51.274;22.506;2023-04-28T10:23:58;6.30;;;2.80;;
33654;SDS011;19997;51.274;22.506;2023-04-28T10:29:30;8.10;;;2.58;;
33654;SDS011;19997;51.274;22.506;2023-04-28T10:32:17;7.70;;;3.40;;
33654;SDS011;19997;51.274;22.506;2023-04-28T10:34:46;6.75;;;2.85;;
33654;SDS011;19997;51.274;22.506;2023-04-28T10:37:13;5.68;;;2.92;;
33654;SDS011;19997;51.274;22.506;2023-04-28T10:42:54;10.82;;;3.03;;
33654;SDS011;19997;51.274;22.506;2023-04-28T10:51:32;6.95;;;3.28;;
33654;SDS011;19997;51.274;22.506;2023-04-28T10:54:06;5.22;;;3.25;;
33654;SDS011;19997;51.274;22.506;2023-04-28T10:59:43;8.02;;;3.38;;
33654;SDS011;19997;51.274;22.506;2023-04-28T11:05:11;4.28;;;2.95;;
33654;SDS011;19997;51.274;22.506;2023-04-28T11:07:39;8.45;;;2.70;;
33654;SDS011;19997;51.274;22.506;2023-04-28T11:10:07;7.97;;;3.08;;
33654;SDS011;19997;51.274;22.506;2023-04-28T11:12:34;7.18;;;3.58;;
33654;SDS011;19997;51.274;22.506;2023-04-28T11:15:12;9.23;;;3.45;;
33654;SDS011;19997;51.274;22.506;2023-04-28T11:17:41;5.73;;;3.13;;
33654;SDS011;19997;51.274;22.506;2023-04-28T11:20:10;5.78;;;3.20;;
33654;SDS011;19997;51.274;22.506;2023-04-28T11:22:39;7.93;;;2.58;;
33654;SDS011;19997;51.274;22.506;2023-04-28T11:25:06;14.05;;;3.10;;
33654;SDS011;19997;51.274;22.506;2023-04-28T11:27:34;5.80;;;2.90;;
33654;SDS011;19997;51.274;22.506;2023-04-28T11:30:01;5.30;;;2.85;;
33654;SDS011;19997;51.274;22.506;2023-04-28T11:32:32;11.63;;;3.83;;
33654;SDS011;19997;51.274;22.506;2023-04-28T11:37:33;6.32;;;3.00;;
33654;SDS011;19997;51.274;22.506;2023-04-28T11:40:08;6.40;;;3.22;;
33654;SDS011;19997;51.274;22.506;2023-04-28T11:42:36;6.85;;;3.20;;
33654;SDS011;19997;51.274;22.506;2023-04-28T11:45:12;8.13;;;3.58;;
33654;SDS011;19997;51.274;22.506;2023-04-28T11:47:41;6.88;;;3.72;;
33654;SDS011;19997;51.274;22.506;2023-04-28T11:50:08;7.30;;;3.20;;
33654;SDS011;19997;51.274;22.506;2023-04-28T11:52:46;8.20;;;4.20;;
33654;SDS011;19997;51.274;22.506;2023-04-28T11:55:15;6.55;;;3.53;;
33654;SDS011;19997;51.274;22.506;2023-04-28T11:57:42;8.40;;;3.05;;
33654;SDS011;19997;51.274;22.506;2023-04-28T12:00:13;8.32;;;3.40;;
33654;SDS011;19997;51.274;22.506;2023-04-28T12:02:44;5.43;;;3.20;;
33654;SDS011;19997;51.274;22.506;2023-04-28T12:05:11;7.10;;;3.72;;
33654;SDS011;19997;51.274;22.506;2023-04-28T12:07:39;6.22;;;3.05;;
33654;SDS011;19997;51.274;22.506;2023-04-28T12:10:11;4.80;;;3.00;;
33654;SDS011;19997;51.274;22.506;2023-04-28T12:12:39;4.85;;;3.10;;
33654;SDS011;19997;51.274;22.506;2023-04-28T12:15:07;4.63;;;2.70;;
33654;SDS011;19997;51.274;22.506;2023-04-28T12:17:35;6.72;;;3.30;;
33654;SDS011;19997;51.274;22.506;2023-04-28T12:20:07;7.93;;;2.97;;
33654;SDS011;19997;51.274;22.506;2023-04-28T12:22:42;6.30;;;3.28;;
33654;SDS011;19997;51.274;22.506;2023-04-28T12:25:11;6.97;;;2.75;;
33654;SDS011;19997;51.274;22.506;2023-04-28T12:27:40;6.18;;;3.10;;
33654;SDS011;19997;51.274;22.506;2023-04-28T12:30:23;5.97;;;3.05;;
33654;SDS011;19997;51.274;22.506;2023-04-28T12:32:51;5.45;;;2.70;;
33654;SDS011;19997;51.274;22.506;2023-04-28T12:38:03;7.57;;;3.17;;
33654;SDS011;19997;51.274;22.506;2023-04-28T12:40:30;6.95;;;3.05;;
33654;SDS011;19997;51.274;22.506;2023-04-28T12:42:57;6.38;;;3.08;;
33654;SDS011;19997;51.274;22.506;2023-04-28T12:45:24;9.57;;;3.17;;
33654;SDS011;19997;51.274;22.506;2023-04-28T12:47:52;5.80;;;3.05;;
33654;SDS011;19997;51.274;22.506;2023-04-28T12:50:19;8.00;;;3.47;;
33654;SDS011;19997;51.274;22.506;2023-04-28T12:52:47;9.38;;;3.30;;
33654;SDS011;19997;51.274;22.506;2023-04-28T12:55:15;5.95;;;3.17;;
33654;SDS011;19997;51.274;22.506;2023-04-28T12:57:42;6.47;;;3.42;;
33654;SDS011;19997;51.274;22.506;2023-04-28T13:00:09;6.15;;;3.47;;
33654;SDS011;19997;51.274;22.506;2023-04-28T13:02:40;6.57;;;3.72;;
33654;SDS011;19997;51.274;22.506;2023-04-28T13:05:07;5.63;;;3.67;;
33654;SDS011;19997;51.274;22.506;2023-04-28T13:07:35;5.07;;;3.30;;
33654;SDS011;19997;51.274;22.506;2023-04-28T13:10:04;6.82;;;3.70;;
33654;SDS011;19997;51.274;22.506;2023-04-28T13:12:32;8.55;;;3.60;;
33654;SDS011;19997;51.274;22.506;2023-04-28T13:15:00;11.18;;;3.10;;
33654;SDS011;19997;51.274;22.506;2023-04-28T13:17:27;6.97;;;3.60;;
33654;SDS011;19997;51.274;22.506;2023-04-28T13:19:55;6.85;;;3.38;;
33654;SDS011;19997;51.274;22.506;2023-04-28T13:22:22;7.53;;;2.78;;
33654;SDS011;19997;51.274;22.506;2023-04-28T13:24:49;7.68;;;3.60;;
33654;SDS011;19997;51.274;22.506;2023-04-28T13:27:17;8.35;;;4.00;;
33654;SDS011;19997;51.274;22.506;2023-04-28T13:29:44;6.70;;;3.33;;
33654;SDS011;19997;51.274;22.506;2023-04-28T13:32:12;15.38;;;4.78;;
33654;SDS011;19997;51.274;22.506;2023-04-28T13:34:39;6.30;;;3.42;;
33654;SDS011;19997;51.274;22.506;2023-04-28T13:37:06;8.27;;;3.00;;
33654;SDS011;19997;51.274;22.506;2023-04-28T13:39:33;6.78;;;3.40;;
33654;SDS011;19997;51.274;22.506;2023-04-28T13:42:00;10.70;;;3.45;;
33654;SDS011;19997;51.274;22.506;2023-04-28T13:44:29;7.88;;;3.38;;
33654;SDS011;19997;51.274;22.506;2023-04-28T13:46:56;15.55;;;4.15;;
33654;SDS011;19997;51.274;22.506;2023-04-28T13:49:23;6.25;;;3.70;;
33654;SDS011;19997;51.274;22.506;2023-04-28T13:51:50;11.15;;;3.92;;
33654;SDS011;19997;51.274;22.506;2023-04-28T13:54:17;8.98;;;4.07;;
33654;SDS011;19997;51.274;22.506;2023-04-28T13:56:45;10.55;;;5.25;;
33654;SDS011;19997;51.274;22.506;2023-04-28T13:59:12;33.80;;;12.50;;
33654;SDS011;19997;51.274;22.506;2023-04-28T14:01:40;8.57;;;5.60;;
33654;SDS011;19997;51.274;22.506;2023-04-28T14:04:08;18.40;;;8.20;;
33654;SDS011;19997;51.274;22.506;2023-04-28T14:06:35;20.63;;;11.32;;
33654;SDS011;19997;51.274;22.506;2023-04-28T14:09:02;38.17;;;15.80;;
33654;SDS011;19997;51.274;22.506;2023-04-28T14:11:29;14.45;;;8.13;;
33654;SDS011;19997;51.274;22.506;2023-04-28T14:13:56;7.60;;;4.25;;
33654;SDS011;19997;51.274;22.506;2023-04-28T14:16:23;10.77;;;3.95;;
33654;SDS011;19997;51.274;22.506;2023-04-28T14:18:53;10.50;;;3.85;;
33654;SDS011;19997;51.274;22.506;2023-04-28T14:21:20;7.22;;;3.90;;
33654;SDS011;19997;51.274;22.506;2023-04-28T14:23:47;28.25;;;14.02;;
33654;SDS011;19997;51.274;22.506;2023-04-28T14:26:14;9.18;;;5.85;;
33654;SDS011;19997;51.274;22.506;2023-04-28T14:28:41;6.18;;;4.47;;
33654;SDS011;19997;51.274;22.506;2023-04-28T14:31:08;17.80;;;7.22;;
33654;SDS011;19997;51.274;22.506;2023-04-28T14:33:35;11.32;;;4.30;;
33654;SDS011;19997;51.274;22.506;2023-04-28T14:36:04;11.45;;;4.57;;
33654;SDS011;19997;51.274;22.506;2023-04-28T14:38:31;8.13;;;3.55;;
33654;SDS011;19997;51.274;22.506;2023-04-28T14:40:59;6.25;;;3.65;;
33654;SDS011;19997;51.274;22.506;2023-04-28T14:43:26;6.85;;;3.67;;
33654;SDS011;19997;51.274;22.506;2023-04-28T14:45:53;7.20;;;4.07;;
33654;SDS011;19997;51.274;22.506;2023-04-28T14:48:20;7.72;;;3.58;;
33654;SDS011;19997;51.274;22.506;2023-04-28T14:50:47;7.47;;;3.35;;
33654;SDS011;19997;51.274;22.506;2023-04-28T14:53:17;6.00;;;3.08;;
33654;SDS011;19997;51.274;22.506;2023-04-28T14:55:44;7.57;;;3.10;;
33654;SDS011;19997;51.274;22.506;2023-04-28T14:58:11;8.90;;;3.30;;